createdAt,value
2018-11-28T00:00:43.795Z,7.90
2018-11-28T00:01:45.912Z,7.90
2018-11-28T00:02:48.394Z,8.00
2018-11-28T00:03:50.552Z,8.00
2018-11-28T00:04:52.681Z,8.00
2018-11-28T00:05:54.911Z,7.90
2018-11-28T00:06:57.052Z,7.90
2018-11-28T00:07:59.233Z,7.90
2018-11-28T00:09:01.415Z,7.90
2018-11-28T00:10:04.125Z,8.00
2018-11-28T00:11:06.268Z,8.00
2018-11-28T00:12:08.399Z,8.00
2018-11-28T00:13:10.513Z,8.00
2018-11-28T00:14:12.614Z,8.00
2018-11-28T00:15:15.216Z,8.00
2018-11-28T00:16:17.587Z,8.00
2018-11-28T00:17:19.814Z,8.00
2018-11-28T00:18:21.919Z,8.00
2018-11-28T00:19:24.055Z,8.00
2018-11-28T00:20:26.475Z,8.00
2018-11-28T00:21:28.587Z,8.00
2018-11-28T00:22:30.720Z,8.00
2018-11-28T00:23:33.394Z,8.00
2018-11-28T00:24:35.546Z,8.00
2018-11-28T00:25:37.663Z,8.00
2018-11-28T00:26:39.815Z,8.00
2018-11-28T00:27:42.235Z,8.00
2018-11-28T00:28:44.361Z,8.00
2018-11-28T00:29:46.487Z,8.00
2018-11-28T00:30:48.881Z,8.00
2018-11-28T00:31:51.008Z,8.00
2018-11-28T00:32:53.395Z,8.00
2018-11-28T00:33:55.544Z,8.00
2018-11-28T00:34:57.758Z,8.00
2018-11-28T00:35:59.855Z,8.00
2018-11-28T00:37:01.987Z,8.00
2018-11-28T00:38:04.352Z,8.00
2018-11-28T00:39:07.647Z,8.00
2018-11-28T00:40:14.044Z,8.00
2018-11-28T00:41:16.191Z,8.00
2018-11-28T00:42:18.418Z,8.00
2018-11-28T00:43:20.665Z,8.00
2018-11-28T00:44:22.779Z,8.20
2018-11-28T00:45:25.239Z,8.00
2018-11-28T00:46:27.394Z,8.00
2018-11-28T00:47:29.897Z,8.00
2018-11-28T00:48:32.029Z,8.00
2018-11-28T00:49:34.152Z,8.00
2018-11-28T00:50:36.305Z,8.00
2018-11-28T00:51:38.419Z,8.00
2018-11-28T00:52:40.559Z,8.00
2018-11-28T00:53:42.709Z,8.00
2018-11-28T00:54:44.830Z,8.00
2018-11-28T00:55:48.531Z,8.00
2018-11-28T00:56:49.159Z,8.00
2018-11-28T00:57:51.286Z,8.00
2018-11-28T00:58:53.431Z,8.00
2018-11-28T00:59:55.547Z,8.00
2018-11-28T01:00:57.725Z,7.90
2018-11-28T01:01:59.909Z,8.00
2018-11-28T01:03:02.065Z,8.00
2018-11-28T01:04:04.203Z,8.00
2018-11-28T01:05:07.740Z,7.90
2018-11-28T01:06:09.879Z,8.00
2018-11-28T01:07:12.022Z,7.90
2018-11-28T01:08:14.398Z,7.90
2018-11-28T01:09:16.533Z,7.90
2018-11-28T01:10:19.883Z,7.90
2018-11-28T01:11:22.204Z,7.90
2018-11-28T01:12:24.358Z,7.90
2018-11-28T01:13:26.475Z,7.90
2018-11-28T01:14:28.625Z,7.90
2018-11-28T01:15:30.752Z,7.90
2018-11-28T01:16:32.885Z,7.90
2018-11-28T01:17:35.031Z,7.90
2018-11-28T01:18:37.359Z,7.90
2018-11-28T01:19:39.787Z,7.90
2018-11-28T01:20:41.916Z,7.90
2018-11-28T01:21:44.544Z,7.90
2018-11-28T01:22:47.004Z,7.90
2018-11-28T01:23:49.460Z,7.90
2018-11-28T01:24:51.595Z,7.90
2018-11-28T01:25:54.008Z,7.90
2018-11-28T01:26:56.167Z,7.90
2018-11-28T01:27:58.303Z,7.90
2018-11-28T01:29:00.432Z,7.90
2018-11-28T01:30:03.279Z,7.80
2018-11-28T01:31:05.803Z,7.80
2018-11-28T01:32:07.923Z,7.80
2018-11-28T01:33:10.037Z,7.80
2018-11-28T01:34:12.163Z,7.80
2018-11-28T01:35:15.411Z,7.80
2018-11-28T01:36:17.563Z,7.80
2018-11-28T01:37:19.696Z,7.70
2018-11-28T01:38:21.848Z,7.70
2018-11-28T01:39:24.128Z,7.70
2018-11-28T01:40:26.279Z,7.70
2018-11-28T01:41:28.446Z,7.70
2018-11-28T01:42:30.781Z,7.70
2018-11-28T01:43:32.891Z,7.70
2018-11-28T01:44:35.031Z,7.70
2018-11-28T01:45:37.235Z,7.70
2018-11-28T01:46:39.405Z,7.70
2018-11-28T01:47:41.894Z,7.70
2018-11-28T01:48:44.012Z,7.70
2018-11-28T01:49:46.228Z,7.70
2018-11-28T01:50:48.369Z,7.70
2018-11-28T01:51:50.736Z,7.60
2018-11-28T01:52:53.111Z,7.60
2018-11-28T01:53:55.255Z,7.50
2018-11-28T01:54:57.391Z,7.50
2018-11-28T01:55:59.543Z,7.50
2018-11-28T01:57:01.674Z,7.50
2018-11-28T01:58:03.842Z,7.40
2018-11-28T01:59:05.978Z,7.40
2018-11-28T02:00:24.013Z,7.50
2018-11-28T02:01:26.278Z,7.40
2018-11-28T02:02:28.444Z,7.50
2018-11-28T02:03:30.611Z,7.40
2018-11-28T02:04:32.731Z,7.40
2018-11-28T02:05:34.911Z,7.30
2018-11-28T02:06:37.046Z,7.40
2018-11-28T02:07:39.431Z,7.40
2018-11-28T02:08:41.554Z,7.40
2018-11-28T02:09:43.694Z,7.40
2018-11-28T02:10:46.209Z,7.40
2018-11-28T02:11:48.643Z,7.50
2018-11-28T02:12:51.010Z,7.50
2018-11-28T02:13:53.358Z,7.50
2018-11-28T02:14:55.782Z,7.50
2018-11-28T02:15:57.908Z,7.50
2018-11-28T02:17:00.020Z,7.60
2018-11-28T02:19:18.026Z,7.60
2018-11-28T02:20:20.190Z,7.60
2018-11-28T02:21:22.366Z,7.60
2018-11-28T02:22:24.516Z,7.60
2018-11-28T02:23:26.852Z,7.60
2018-11-28T02:24:28.975Z,7.60
2018-11-28T02:25:31.099Z,7.60
2018-11-28T02:26:33.696Z,7.50
2018-11-28T02:27:35.826Z,7.50
2018-11-28T02:28:38.226Z,7.50
2018-11-28T02:29:40.339Z,7.50
2018-11-28T02:30:42.488Z,7.50
2018-11-28T02:31:44.643Z,7.50
2018-11-28T02:32:47.506Z,7.50
2018-11-28T02:33:49.705Z,7.50
2018-11-28T02:34:51.831Z,7.50
2018-11-28T02:35:53.976Z,7.30
2018-11-28T02:37:02.751Z,7.40
2018-11-28T02:38:04.923Z,7.40
2018-11-28T02:39:08.287Z,7.40
2018-11-28T02:40:12.411Z,7.40
2018-11-28T02:41:14.837Z,7.40
2018-11-28T02:42:16.956Z,7.40
2018-11-28T02:43:19.091Z,7.40
2018-11-28T02:44:21.214Z,7.40
2018-11-28T02:45:23.560Z,7.40
2018-11-28T02:46:29.564Z,7.40
2018-11-28T02:47:31.728Z,7.40
2018-11-28T02:48:33.844Z,7.40
2018-11-28T02:49:35.968Z,7.50
2018-11-28T02:50:38.081Z,7.40
2018-11-28T02:51:40.242Z,7.40
2018-11-28T02:52:42.440Z,7.40
2018-11-28T02:53:44.860Z,7.50
2018-11-28T02:54:46.983Z,7.50
2018-11-28T02:55:49.167Z,7.50
2018-11-28T02:56:51.306Z,7.30
2018-11-28T02:57:53.443Z,7.50
2018-11-28T02:58:55.573Z,7.50
2018-11-28T02:59:57.704Z,7.40
2018-11-28T03:00:59.831Z,7.40
2018-11-28T03:02:01.983Z,7.40
2018-11-28T03:03:04.223Z,7.40
2018-11-28T03:04:06.385Z,7.40
2018-11-28T03:05:09.736Z,7.50
2018-11-28T03:06:12.131Z,7.50
2018-11-28T03:07:14.331Z,7.50
2018-11-28T03:08:16.487Z,7.50
2018-11-28T03:09:18.600Z,7.40
2018-11-28T03:10:22.071Z,7.40
2018-11-28T03:11:24.280Z,7.40
2018-11-28T03:12:26.419Z,7.40
2018-11-28T03:13:28.585Z,7.40
2018-11-28T03:14:30.895Z,7.40
2018-11-28T03:15:34.261Z,7.40
2018-11-28T03:16:36.386Z,7.40
2018-11-28T03:17:38.516Z,7.40
2018-11-28T03:18:40.652Z,7.30
2018-11-28T03:19:42.796Z,7.40
2018-11-28T03:20:45.256Z,7.30
2018-11-28T03:21:47.381Z,7.30
2018-11-28T03:22:49.597Z,7.40
2018-11-28T03:23:51.733Z,7.40
2018-11-28T03:24:53.904Z,7.30
2018-11-28T03:25:56.059Z,7.40
2018-11-28T03:26:58.192Z,7.30
2018-11-28T03:28:00.320Z,7.30
2018-11-28T03:29:02.481Z,7.30
2018-11-28T03:30:11.215Z,7.30
2018-11-28T03:31:13.407Z,7.20
2018-11-28T03:32:15.548Z,7.20
2018-11-28T03:33:17.688Z,7.20
2018-11-28T03:34:19.866Z,7.30
2018-11-28T03:35:22.093Z,7.30
2018-11-28T03:36:24.212Z,7.30
2018-11-28T03:37:26.351Z,7.30
2018-11-28T03:38:28.500Z,7.30
2018-11-28T03:39:30.623Z,7.30
2018-11-28T03:40:32.903Z,7.30
2018-11-28T03:41:35.096Z,7.30
2018-11-28T03:42:37.536Z,7.30
2018-11-28T03:43:39.687Z,7.30
2018-11-28T03:44:41.835Z,7.30
2018-11-28T03:45:43.995Z,7.30
2018-11-28T03:46:46.130Z,7.30
2018-11-28T03:47:48.280Z,7.30
2018-11-28T03:48:50.487Z,7.40
2018-11-28T03:49:52.626Z,7.40
2018-11-28T03:50:54.739Z,7.40
2018-11-28T03:51:57.199Z,7.40
2018-11-28T03:52:59.336Z,7.50
2018-11-28T03:54:01.721Z,7.50
2018-11-28T03:55:05.848Z,7.50
2018-11-28T03:56:07.948Z,7.40
2018-11-28T03:57:10.095Z,7.50
2018-11-28T03:58:12.278Z,7.60
2018-11-28T03:59:14.630Z,7.60
2018-11-28T04:00:19.014Z,7.60
2018-11-28T04:01:21.136Z,7.60
2018-11-28T04:02:23.280Z,7.60
2018-11-28T04:03:25.410Z,7.60
2018-11-28T04:04:27.532Z,7.60
2018-11-28T04:05:29.756Z,7.60
2018-11-28T04:06:31.868Z,7.60
2018-11-28T04:07:34.414Z,7.60
2018-11-28T04:08:36.559Z,7.60
2018-11-28T04:09:39.017Z,7.60
2018-11-28T04:10:41.159Z,7.60
2018-11-28T04:11:43.312Z,7.60
2018-11-28T04:12:45.443Z,7.60
2018-11-28T04:13:47.577Z,7.60
2018-11-28T04:14:49.831Z,7.60
2018-11-28T04:15:52.243Z,7.60
2018-11-28T04:16:54.423Z,7.50
2018-11-28T04:17:56.558Z,7.50
2018-11-28T04:18:58.724Z,7.50
2018-11-28T04:20:00.872Z,7.50
2018-11-28T04:21:03.003Z,7.50
2018-11-28T04:22:05.432Z,7.50
2018-11-28T04:23:07.551Z,7.50
2018-11-28T04:24:09.699Z,7.50
2018-11-28T04:25:12.707Z,7.50
2018-11-28T04:26:14.811Z,7.50
2018-11-28T04:27:17.002Z,7.50
2018-11-28T04:28:19.144Z,7.50
2018-11-28T04:29:21.295Z,7.40
2018-11-28T04:30:24.183Z,7.50
2018-11-28T04:31:26.268Z,7.30
2018-11-28T04:32:28.622Z,7.40
2018-11-28T04:33:31.027Z,7.40
2018-11-28T04:34:33.219Z,7.40
2018-11-28T04:35:35.395Z,7.40
2018-11-28T04:36:37.672Z,7.30
2018-11-28T04:37:39.942Z,7.30
2018-11-28T04:38:42.099Z,7.30
2018-11-28T04:39:44.268Z,7.30
2018-11-28T04:40:46.412Z,7.30
2018-11-28T04:41:48.561Z,7.30
2018-11-28T04:42:50.695Z,7.30
2018-11-28T04:43:52.834Z,7.20
2018-11-28T04:44:55.007Z,7.30
2018-11-28T04:45:57.154Z,7.20
2018-11-28T04:46:59.287Z,7.20
2018-11-28T04:48:01.642Z,7.20
2018-11-28T04:49:04.181Z,7.20
2018-11-28T04:50:07.601Z,7.20
2018-11-28T04:51:09.728Z,7.20
2018-11-28T04:52:11.881Z,7.20
2018-11-28T04:53:14.042Z,7.20
2018-11-28T04:54:16.204Z,7.20
2018-11-28T04:55:19.076Z,7.10
2018-11-28T04:56:21.238Z,7.10
2018-11-28T04:57:23.368Z,7.10
2018-11-28T04:58:25.611Z,7.10
2018-11-28T04:59:27.719Z,7.10
2018-11-28T05:00:29.859Z,7.10
2018-11-28T05:01:32.304Z,7.10
2018-11-28T05:02:34.499Z,7.10
2018-11-28T05:03:37.071Z,7.10
2018-11-28T05:04:38.866Z,7.10
2018-11-28T05:05:41.165Z,7.10
2018-11-28T05:07:47.363Z,7.10
2018-11-28T05:08:49.533Z,7.10
2018-11-28T05:09:51.707Z,7.10
2018-11-28T05:10:53.899Z,7.00
2018-11-28T05:11:56.249Z,7.00
2018-11-28T05:12:59.157Z,7.00
2018-11-28T05:14:01.299Z,7.00
2018-11-28T05:15:04.115Z,7.00
2018-11-28T05:16:06.275Z,7.00
2018-11-28T05:17:08.419Z,7.00
2018-11-28T05:18:11.036Z,7.00
2018-11-28T05:19:13.143Z,6.80
2018-11-28T05:20:18.120Z,7.00
2018-11-28T05:21:20.234Z,7.00
2018-11-28T05:22:22.340Z,7.00
2018-11-28T05:23:24.482Z,7.00
2018-11-28T05:24:26.598Z,7.00
2018-11-28T05:25:28.766Z,7.00
2018-11-28T05:26:30.986Z,7.00
2018-11-28T05:27:33.119Z,7.00
2018-11-28T05:28:35.504Z,7.00
2018-11-28T05:29:37.655Z,7.00
2018-11-28T05:30:40.112Z,7.00
2018-11-28T05:31:42.538Z,6.90
2018-11-28T05:32:44.695Z,6.90
2018-11-28T05:33:46.853Z,7.00
2018-11-28T05:34:49.015Z,7.00
2018-11-28T05:35:51.173Z,7.00
2018-11-28T05:36:53.290Z,7.00
2018-11-28T05:37:55.909Z,7.00
2018-11-28T05:38:58.095Z,7.00
2018-11-28T05:40:00.256Z,7.00
2018-11-28T05:41:02.422Z,7.00
2018-11-28T05:42:04.767Z,6.90
2018-11-28T05:43:07.034Z,6.90
2018-11-28T05:44:09.708Z,6.90
2018-11-28T05:45:11.867Z,6.90
2018-11-28T05:46:14.001Z,6.90
2018-11-28T05:47:16.142Z,6.90
2018-11-28T05:48:18.958Z,6.80
2018-11-28T05:49:21.072Z,6.90
2018-11-28T05:50:23.203Z,6.80
2018-11-28T05:51:25.411Z,6.80
2018-11-28T05:52:27.532Z,6.80
2018-11-28T05:53:29.729Z,6.80
2018-11-28T05:54:31.866Z,6.90
2018-11-28T05:55:34.036Z,6.80
2018-11-28T05:56:36.144Z,6.90
2018-11-28T05:57:38.266Z,6.80
2018-11-28T05:58:40.394Z,6.80
2018-11-28T05:59:42.510Z,6.80
2018-11-28T06:00:44.802Z,6.80
2018-11-28T06:01:46.922Z,6.70
2018-11-28T06:02:49.125Z,6.70
2018-11-28T06:03:51.252Z,6.70
2018-11-28T06:04:53.443Z,6.70
2018-11-28T06:05:55.596Z,6.70
2018-11-28T06:06:58.238Z,6.80
2018-11-28T06:08:01.138Z,6.80
2018-11-28T06:09:05.521Z,6.80
2018-11-28T06:10:07.769Z,6.80
2018-11-28T06:11:09.939Z,6.80
2018-11-28T06:12:12.059Z,6.80
2018-11-28T06:13:14.179Z,6.80
2018-11-28T06:14:16.303Z,6.90
2018-11-28T06:15:18.471Z,6.80
2018-11-28T06:16:20.600Z,6.80
2018-11-28T06:17:23.439Z,6.80
2018-11-28T06:18:25.583Z,6.80
2018-11-28T06:19:27.711Z,6.80
2018-11-28T06:20:29.923Z,6.80
2018-11-28T06:21:32.061Z,6.80
2018-11-28T06:22:34.183Z,6.80
2018-11-28T06:23:36.315Z,6.80
2018-11-28T06:24:38.415Z,6.70
2018-11-28T06:25:40.659Z,6.70
2018-11-28T06:26:42.824Z,6.70
2018-11-28T06:27:45.088Z,6.60
2018-11-28T06:28:47.323Z,6.70
2018-11-28T06:29:49.548Z,6.70
2018-11-28T06:30:51.827Z,6.60
2018-11-28T06:31:53.988Z,6.70
2018-11-28T06:32:56.107Z,6.70
2018-11-28T06:33:58.251Z,6.60
2018-11-28T06:35:00.742Z,6.70
2018-11-28T06:36:02.987Z,6.70
2018-11-28T06:37:05.419Z,6.60
2018-11-28T06:38:07.564Z,6.60
2018-11-28T06:39:09.687Z,6.60
2018-11-28T06:40:14.563Z,6.60
2018-11-28T06:41:16.767Z,6.50
2018-11-28T06:42:18.982Z,6.50
2018-11-28T06:43:21.138Z,6.50
2018-11-28T06:44:24.298Z,6.50
2018-11-28T06:45:26.435Z,6.50
2018-11-28T06:46:28.562Z,6.50
2018-11-28T06:47:30.703Z,6.50
2018-11-28T06:48:32.876Z,6.50
2018-11-28T06:49:35.031Z,6.50
2018-11-28T06:50:37.257Z,6.50
2018-11-28T06:51:39.459Z,6.50
2018-11-28T06:52:42.458Z,6.50
2018-11-28T06:53:44.615Z,6.50
2018-11-28T06:54:46.761Z,6.50
2018-11-28T06:55:49.084Z,6.50
2018-11-28T06:56:51.224Z,6.50
2018-11-28T06:57:53.398Z,6.50
2018-11-28T06:58:55.822Z,6.50
2018-11-28T06:59:57.990Z,6.50
2018-11-28T07:01:00.140Z,6.40
2018-11-28T07:02:02.556Z,6.40
2018-11-28T07:03:04.819Z,6.40
2018-11-28T07:04:06.948Z,6.40
2018-11-28T07:05:09.736Z,6.40
2018-11-28T07:06:11.868Z,6.40
2018-11-28T07:07:14.307Z,6.40
2018-11-28T07:08:17.975Z,6.40
2018-11-28T07:09:20.142Z,6.40
2018-11-28T07:10:22.305Z,6.40
2018-11-28T07:11:24.502Z,6.40
2018-11-28T07:12:26.646Z,6.30
2018-11-28T07:13:28.778Z,6.40
2018-11-28T07:14:30.948Z,6.40
2018-11-28T07:15:33.091Z,6.40
2018-11-28T07:16:35.247Z,6.40
2018-11-28T07:17:37.538Z,6.50
2018-11-28T07:18:51.283Z,6.50
2018-11-28T07:19:53.438Z,6.50
2018-11-28T07:20:55.617Z,6.50
2018-11-28T07:21:57.774Z,6.50
2018-11-28T07:22:59.873Z,6.50
2018-11-28T07:24:02.791Z,6.50
2018-11-28T07:25:06.968Z,6.60
2018-11-28T07:26:09.083Z,6.60
2018-11-28T07:27:11.232Z,6.60
2018-11-28T07:28:13.386Z,6.70
2018-11-28T07:29:15.512Z,6.70
2018-11-28T07:30:21.114Z,6.70
2018-11-28T07:31:23.339Z,6.70
2018-11-28T07:32:25.795Z,6.70
2018-11-28T07:33:28.026Z,6.70
2018-11-28T07:34:30.232Z,6.70
2018-11-28T07:35:32.396Z,6.80
2018-11-28T07:36:34.516Z,6.80
2018-11-28T07:37:36.888Z,6.80
2018-11-28T07:38:39.303Z,6.80
2018-11-28T07:39:41.686Z,6.80
2018-11-28T07:40:44.077Z,6.80
2018-11-28T07:41:46.253Z,6.80
2018-11-28T07:42:55.547Z,6.80
2018-11-28T07:43:58.040Z,6.80
2018-11-28T07:45:00.188Z,6.80
2018-11-28T07:46:02.315Z,6.80
2018-11-28T07:47:04.531Z,6.80
2018-11-28T07:48:06.734Z,6.80
2018-11-28T07:49:08.852Z,6.80
2018-11-28T07:50:11.003Z,6.80
2018-11-28T07:51:13.131Z,6.80
2018-11-28T07:52:15.257Z,6.80
2018-11-28T07:53:17.408Z,6.80
2018-11-28T07:54:19.537Z,6.80
2018-11-28T07:55:21.712Z,6.80
2018-11-28T07:56:23.854Z,6.80
2018-11-28T07:57:26.323Z,6.80
2018-11-28T07:58:28.507Z,6.80
2018-11-28T07:59:30.980Z,6.80
2018-11-28T08:00:33.303Z,6.90
2018-11-28T08:01:35.453Z,6.90
2018-11-28T08:02:38.450Z,6.90
2018-11-28T08:03:40.595Z,6.90
2018-11-28T08:04:42.855Z,6.90
2018-11-28T08:05:45.026Z,6.90
2018-11-28T08:06:47.151Z,6.90
2018-11-28T08:07:49.312Z,7.00
2018-11-28T08:08:56.396Z,7.00
2018-11-28T08:09:59.171Z,7.00
2018-11-28T08:11:01.647Z,7.00
2018-11-28T08:12:04.672Z,7.00
2018-11-28T08:13:07.287Z,7.00
2018-11-28T08:14:09.439Z,6.90
2018-11-28T08:15:11.655Z,6.90
2018-11-28T08:16:13.775Z,6.80
2018-11-28T08:17:15.904Z,6.80
2018-11-28T08:18:18.339Z,6.80
2018-11-28T08:19:24.051Z,6.80
2018-11-28T08:20:22.987Z,6.80
2018-11-28T08:21:25.108Z,6.80
2018-11-28T08:22:27.375Z,6.80
2018-11-28T08:23:29.447Z,6.80
2018-11-28T08:24:31.836Z,6.80
2018-11-28T08:25:33.991Z,6.80
2018-11-28T08:26:36.377Z,6.80
2018-11-28T08:27:38.649Z,6.80
2018-11-28T08:28:40.731Z,6.80
2018-11-28T08:29:42.883Z,6.90
2018-11-28T08:30:45.077Z,6.90
2018-11-28T08:31:47.243Z,6.80
2018-11-28T08:32:49.485Z,6.80
2018-11-28T08:33:51.722Z,6.70
2018-11-28T08:34:57.077Z,6.70
2018-11-28T08:35:59.645Z,6.70
2018-11-28T08:37:01.889Z,6.60
2018-11-28T08:38:04.122Z,6.60
2018-11-28T08:39:07.280Z,6.60
2018-11-28T08:40:11.010Z,6.60
2018-11-28T08:41:13.233Z,6.60
2018-11-28T08:42:15.355Z,6.60
2018-11-28T08:43:17.507Z,6.60
2018-11-28T08:44:19.723Z,6.70
2018-11-28T08:45:21.993Z,6.60
2018-11-28T08:46:24.120Z,6.60
2018-11-28T08:47:26.263Z,6.60
2018-11-28T08:48:28.408Z,6.60
2018-11-28T08:49:30.532Z,6.70
2018-11-28T08:50:33.958Z,6.70
2018-11-28T08:51:37.372Z,6.70
2018-11-28T08:52:38.665Z,6.80
2018-11-28T08:53:40.819Z,6.80
2018-11-28T08:54:42.956Z,6.80
2018-11-28T08:55:45.214Z,6.90
2018-11-28T08:56:47.254Z,6.90
2018-11-28T08:57:49.968Z,6.90
2018-11-28T08:58:52.173Z,7.00
2018-11-28T08:59:54.287Z,7.00
2018-11-28T09:00:56.439Z,7.00
2018-11-28T09:01:58.702Z,7.00
2018-11-28T09:03:00.883Z,7.00
2018-11-28T09:04:03.037Z,7.00
2018-11-28T09:05:05.720Z,7.00
2018-11-28T09:06:07.960Z,7.00
2018-11-28T09:07:10.454Z,7.10
2018-11-28T09:08:12.567Z,7.10
2018-11-28T09:09:14.727Z,7.10
2018-11-28T09:10:17.704Z,7.10
2018-11-28T09:11:19.934Z,7.10
2018-11-28T09:12:22.375Z,7.20
2018-11-28T09:13:24.502Z,7.20
2018-11-28T09:14:26.710Z,7.20
2018-11-28T09:15:29.503Z,7.20
2018-11-28T09:16:31.839Z,7.30
2018-11-28T09:17:33.951Z,7.30
2018-11-28T09:18:36.103Z,7.30
2018-11-28T09:19:38.223Z,7.30
2018-11-28T09:20:40.451Z,7.30
2018-11-28T09:21:42.563Z,7.30
2018-11-28T09:22:44.702Z,7.30
2018-11-28T09:23:46.828Z,7.30
2018-11-28T09:24:48.971Z,7.30
2018-11-28T09:25:51.092Z,7.30
2018-11-28T09:26:53.803Z,7.40
2018-11-28T09:27:57.078Z,7.40
2018-11-28T09:28:59.235Z,7.40
2018-11-28T09:30:01.464Z,7.30
2018-11-28T09:31:03.602Z,7.30
2018-11-28T09:32:05.996Z,7.20
2018-11-28T09:33:08.785Z,7.20
2018-11-28T09:34:10.300Z,7.20
2018-11-28T09:35:13.302Z,7.10
2018-11-28T09:36:15.412Z,7.10
2018-11-28T09:37:17.543Z,7.10
2018-11-28T09:38:19.709Z,7.00
2018-11-28T09:39:21.831Z,7.00
2018-11-28T09:40:25.535Z,7.00
2018-11-28T09:41:28.088Z,7.10
2018-11-28T09:42:30.262Z,7.20
2018-11-28T09:43:32.687Z,7.20
2018-11-28T09:44:34.810Z,7.20
2018-11-28T09:45:36.952Z,7.20
2018-11-28T09:46:39.107Z,7.20
2018-11-28T09:47:41.583Z,7.30
2018-11-28T09:48:43.727Z,7.30
2018-11-28T09:49:45.844Z,7.40
2018-11-28T09:50:47.986Z,7.40
2018-11-28T09:51:50.127Z,7.50
2018-11-28T09:52:52.280Z,7.50
2018-11-28T09:53:54.442Z,7.40
2018-11-28T09:54:56.581Z,7.40
2018-11-28T09:55:58.689Z,7.40
2018-11-28T09:57:00.967Z,7.40
2018-11-28T09:58:03.295Z,7.30
2018-11-28T09:59:05.427Z,7.30
2018-11-28T10:00:12.892Z,7.30
2018-11-28T10:01:15.059Z,7.20
2018-11-28T10:02:17.791Z,7.20
2018-11-28T10:03:19.904Z,7.20
2018-11-28T10:04:22.043Z,7.30
2018-11-28T10:05:29.208Z,7.10
2018-11-28T10:06:31.335Z,7.30
2018-11-28T10:07:33.490Z,7.30
2018-11-28T10:08:35.623Z,7.30
2018-11-28T10:09:38.093Z,7.40
2018-11-28T10:10:40.328Z,7.40
2018-11-28T10:11:42.455Z,7.40
2018-11-28T10:12:44.621Z,7.30
2018-11-28T10:13:46.773Z,7.30
2018-11-28T10:14:48.903Z,7.30
2018-11-28T10:15:51.102Z,7.40
2018-11-28T10:16:54.262Z,7.40
2018-11-28T10:17:55.907Z,7.40
2018-11-28T10:18:58.043Z,7.40
2018-11-28T10:20:00.815Z,7.50
2018-11-28T10:21:03.343Z,7.50
2018-11-28T10:22:05.612Z,7.50
2018-11-28T10:23:07.740Z,7.60
2018-11-28T10:24:10.214Z,7.60
2018-11-28T10:25:15.199Z,7.60
2018-11-28T10:26:17.928Z,7.70
2018-11-28T10:27:20.115Z,7.70
2018-11-28T10:28:22.288Z,7.70
2018-11-28T10:29:24.439Z,7.70
2018-11-28T10:30:29.042Z,7.70
2018-11-28T10:31:29.859Z,7.80
2018-11-28T10:32:32.039Z,7.80
2018-11-28T10:33:34.186Z,7.80
2018-11-28T10:34:36.329Z,7.80
2018-11-28T10:35:39.278Z,7.90
2018-11-28T10:36:41.404Z,7.90
2018-11-28T10:37:43.573Z,8.00
2018-11-28T10:38:45.828Z,8.00
2018-11-28T10:39:47.943Z,8.00
2018-11-28T10:40:50.211Z,8.10
2018-11-28T10:41:52.931Z,8.10
2018-11-28T10:42:56.903Z,8.20
2018-11-28T10:43:59.284Z,8.20
2018-11-28T10:45:01.487Z,8.20
2018-11-28T10:46:03.631Z,8.20
2018-11-28T10:47:06.081Z,8.20
2018-11-28T10:48:10.478Z,8.20
2018-11-28T10:49:12.629Z,8.30
2018-11-28T10:50:14.916Z,8.30
2018-11-28T10:51:17.123Z,8.30
2018-11-28T10:52:19.490Z,8.40
2018-11-28T10:53:21.627Z,8.30
2018-11-28T10:54:24.452Z,8.40
2018-11-28T10:55:26.580Z,8.30
2018-11-28T10:56:28.728Z,8.30
2018-11-28T10:57:31.187Z,8.30
2018-11-28T10:58:33.318Z,8.30
2018-11-28T10:59:35.503Z,8.30
2018-11-28T11:00:43.352Z,8.40
2018-11-28T11:01:56.144Z,8.20
2018-11-28T11:03:03.922Z,8.40
2018-11-28T11:04:11.771Z,8.30
2018-11-28T11:05:19.546Z,8.30
2018-11-28T11:06:27.692Z,8.30
2018-11-28T11:07:35.455Z,8.30
2018-11-28T11:08:43.292Z,8.40
2018-11-28T11:09:51.235Z,8.40
2018-11-28T11:10:59.320Z,8.40
2018-11-28T11:12:06.193Z,8.40
2018-11-28T11:13:13.988Z,8.40
2018-11-28T11:14:21.989Z,8.40
2018-11-28T11:15:24.139Z,8.30
2018-11-28T11:16:30.045Z,8.30
2018-11-28T11:17:32.408Z,8.30
2018-11-28T11:18:34.536Z,8.30
2018-11-28T11:19:36.763Z,8.20
2018-11-28T11:20:38.932Z,8.20
2018-11-28T11:21:41.083Z,8.20
2018-11-28T11:22:43.317Z,8.20
2018-11-28T11:23:45.474Z,8.20
2018-11-28T11:24:47.850Z,8.20
2018-11-28T11:25:50.406Z,8.20
2018-11-28T11:26:53.147Z,8.20
2018-11-28T11:27:55.588Z,8.20
2018-11-28T11:28:57.750Z,8.20
2018-11-28T11:29:59.953Z,8.20
2018-11-28T11:31:02.122Z,8.30
2018-11-28T11:32:04.641Z,8.30
2018-11-28T11:33:06.962Z,8.40
2018-11-28T11:34:09.164Z,8.40
2018-11-28T11:35:11.657Z,8.50
2018-11-28T11:36:13.858Z,8.50
2018-11-28T11:37:16.038Z,8.50
2018-11-28T11:38:18.296Z,8.50
2018-11-28T11:39:20.493Z,8.50
2018-11-28T11:40:22.656Z,8.50
2018-11-28T11:41:25.133Z,8.40
2018-11-28T11:42:27.242Z,8.50
2018-11-28T11:43:29.669Z,8.40
2018-11-28T11:44:31.800Z,8.40
2018-11-28T11:45:34.020Z,8.40
2018-11-28T11:46:36.166Z,8.40
2018-11-28T11:47:38.647Z,8.40
2018-11-28T11:48:41.324Z,8.40
2018-11-28T11:49:43.465Z,8.40
2018-11-28T11:50:45.622Z,8.40
2018-11-28T11:51:47.879Z,8.40
2018-11-28T11:52:50.037Z,8.40
2018-11-28T11:53:52.195Z,8.40
2018-11-28T11:54:54.347Z,8.40
2018-11-28T11:55:56.504Z,8.40
2018-11-28T11:56:58.861Z,8.40
2018-11-28T11:58:01.033Z,8.50
2018-11-28T11:59:03.267Z,8.50
2018-11-28T12:00:11.105Z,8.50
2018-11-28T12:01:13.276Z,8.60
2018-11-28T12:02:15.420Z,8.60
2018-11-28T12:03:17.646Z,8.60
2018-11-28T12:04:19.837Z,8.60
2018-11-28T12:05:22.008Z,8.60
2018-11-28T12:06:24.170Z,8.60
2018-11-28T12:07:26.632Z,8.60
2018-11-28T12:08:29.095Z,8.60
2018-11-28T12:09:31.231Z,8.60
2018-11-28T12:10:33.544Z,8.70
2018-11-28T12:11:35.771Z,8.70
2018-11-28T12:12:38.677Z,8.80
2018-11-28T12:13:41.232Z,8.90
2018-11-28T12:14:43.363Z,8.90
2018-11-28T12:15:45.847Z,8.90
2018-11-28T12:16:48.065Z,8.90
2018-11-28T12:17:50.347Z,9.00
2018-11-28T12:18:52.491Z,9.00
2018-11-28T12:19:54.608Z,9.00
2018-11-28T12:20:59.519Z,9.10
2018-11-28T12:22:01.667Z,9.10
2018-11-28T12:23:04.181Z,9.10
2018-11-28T12:24:06.587Z,9.10
2018-11-28T12:25:09.230Z,9.20
2018-11-28T12:26:11.374Z,9.20
2018-11-28T12:27:13.531Z,9.20
2018-11-28T12:28:15.691Z,9.20
2018-11-28T12:29:18.153Z,9.10
2018-11-28T12:30:20.776Z,9.10
2018-11-28T12:31:22.927Z,9.20
2018-11-28T12:32:25.092Z,9.20
2018-11-28T12:33:27.598Z,9.30
2018-11-28T12:34:29.701Z,9.30
2018-11-28T12:35:31.846Z,9.30
2018-11-28T12:36:33.967Z,9.40
2018-11-28T12:37:36.228Z,9.50
2018-11-28T12:38:38.385Z,9.50
2018-11-28T12:39:40.741Z,9.50
2018-11-28T12:40:42.880Z,9.50
2018-11-28T12:41:44.993Z,9.50
2018-11-28T12:42:49.487Z,9.50
2018-11-28T12:43:51.651Z,9.50
2018-11-28T12:44:53.834Z,9.50
2018-11-28T12:45:56.040Z,9.50
2018-11-28T12:46:58.298Z,9.40
2018-11-28T12:48:00.490Z,9.40
2018-11-28T12:49:02.643Z,9.50
2018-11-28T12:50:13.864Z,9.40
2018-11-28T12:51:16.311Z,9.50
2018-11-28T12:52:18.452Z,9.40
2018-11-28T12:53:20.647Z,9.40
2018-11-28T12:54:22.795Z,9.50
2018-11-28T12:55:25.282Z,9.50
2018-11-28T12:56:27.398Z,9.50
2018-11-28T12:57:29.552Z,9.50
2018-11-28T12:58:31.705Z,9.50
2018-11-28T12:59:34.115Z,9.60
2018-11-28T13:00:36.259Z,9.60
2018-11-28T13:01:38.407Z,9.60
2018-11-28T13:02:40.661Z,9.60
2018-11-28T13:03:42.796Z,9.60
2018-11-28T13:04:45.538Z,9.60
2018-11-28T13:05:47.738Z,9.60
2018-11-28T13:06:49.916Z,9.60
2018-11-28T13:07:52.412Z,9.60
2018-11-28T13:08:54.542Z,9.60
2018-11-28T13:09:56.663Z,9.70
2018-11-28T13:10:58.965Z,9.70
2018-11-28T13:12:01.108Z,9.70
2018-11-28T13:13:04.062Z,9.70
2018-11-28T13:14:06.231Z,9.70
2018-11-28T13:15:10.347Z,9.80
2018-11-28T13:16:12.851Z,9.80
2018-11-28T13:17:15.015Z,9.80
2018-11-28T13:18:17.768Z,9.80
2018-11-28T13:19:20.056Z,9.80
2018-11-28T13:20:22.302Z,9.80
2018-11-28T13:21:24.460Z,9.70
2018-11-28T13:22:26.704Z,9.70
2018-11-28T13:23:28.855Z,9.70
2018-11-28T13:24:31.042Z,9.70
2018-11-28T13:25:33.502Z,9.70
2018-11-28T13:26:35.763Z,9.70
2018-11-28T13:27:37.943Z,9.80
2018-11-28T13:28:40.080Z,9.80
2018-11-28T13:29:42.230Z,9.80
2018-11-28T13:30:44.371Z,9.80
2018-11-28T13:31:46.847Z,9.80
2018-11-28T13:32:49.707Z,9.80
2018-11-28T13:33:52.214Z,9.80
2018-11-28T13:34:54.355Z,9.80
2018-11-28T13:35:56.587Z,9.70
2018-11-28T13:36:58.829Z,9.70
2018-11-28T13:38:03.696Z,9.70
2018-11-28T13:39:06.630Z,9.70
2018-11-28T13:40:10.232Z,9.70
2018-11-28T13:41:13.182Z,9.80
2018-11-28T13:42:15.392Z,9.80
2018-11-28T13:43:17.585Z,9.80
2018-11-28T13:44:19.740Z,9.80
2018-11-28T13:45:25.407Z,9.90
2018-11-28T13:46:27.884Z,9.90
2018-11-28T13:47:30.048Z,9.90
2018-11-28T13:48:32.324Z,9.90
2018-11-28T13:49:34.485Z,9.90
2018-11-28T13:50:36.923Z,9.90
2018-11-28T13:51:39.031Z,9.90
2018-11-28T13:52:41.181Z,9.90
2018-11-28T13:53:43.320Z,9.90
2018-11-28T13:55:38.628Z,9.90